Haywardville, MA

7:09 AM EST on December 07, 2016 (GMT -0500)
| | Change Station

Elev -9999 ft 0.00 °N, 0.00 °E | Updated

Light Rain
Light Rain
°F
Feels Like °F
N
Wind Variable Wind from North
Gusts mph

Today
High -- | Low -- °F
--% Chance of Precip.
Yesterday
High -- | Low -- °F
Precip. -- in
Pressure 29.96 in
Visibility 9.0 miles
Clouds Mostly Cloudy 1500 ft
Mostly Cloudy 1900 ft
Overcast 2600 ft
Dew Point Not available.
Humidity Not available.
Rainfall --
Snow Depth Not available.
7:00 AM 4:11 PM
First Quarter, 52% visible
METAR KBOS 071154Z 09009KT 9SM -RA BKN015 BKN019 OVC026 04/03 A2996 RMK AO2 SLP143 P0002 60005 70005 T00390028 10050 20039 53011
Pressure 29.96 in
Visibility 9.0 miles
Clouds Mostly Cloudy 1500 ft
Mostly Cloudy 1900 ft
Overcast 2600 ft
Dew Point Not available.
Humidity Not available.
Rainfall --
Snow Depth Not available.
7:00 AM 4:11 PM
First Quarter, 52% visible
METAR KBOS 071154Z 09009KT 9SM -RA BKN015 BKN019 OVC026 04/03 A2996 RMK AO2 SLP143 P0002 60005 70005 T00390028 10050 20039 53011

10-Day Weather Forecast

Almanac

Astronomy

Dec. 07, 2016 Rise Set
Actual Time
Civil Twilight
Nautical Twilight
Astronomical Twilight
Moon
Length of Visible Light
Length of Day
Tomorrow will be .
, % of the Moon is Illuminated

Today's Extremes

State Highs State Lows

Community

WunderPhotos

Upload Photos

1,956,111 photos uploaded!

WunderBlog® & News

Nearby

Air Quality

  Air Quality AQ Index Pollutant
Not available.

Snow Depth

Station Depth Elevation

Earthquake Activity

City Distance Mag. Time & Date
Minimum magnitude displayed is 2.5.

Coastal Water Temperatures

Place Temperature

Stations

Nearby Weather Stations

Station Location Temp. Windchill Dew Point Humidity Wind Precip. Elev Updated Type
                   

Watches & Warnings

There are currently no watches in effect.